Time;durP1;ratioP1;P1;durP2;ratioP2;P2;SDS_P1;SDS_P2;PMS_P1;PMS_P2;Temp;Humidity;BMP_temperature;BMP_pressure;BME280_temperature;BME280_humidity;BME280_pressure;Samples;Min_cycle;Max_cycle;Signal;HPM_P1;HPM_P2
2024/03/05 00:00:45;;;;;;;25.70;12.70;;;;;;;5.46;98.68;101127.02;105782;1254;60518;-74
2024/03/05 00:03:12;;;;;;;23.90;12.60;;;;;;;5.44;98.92;101125.20;105793;1256;73705;-75
2024/03/05 00:05:39;;;;;;;23.90;11.70;;;;;;;5.42;99.13;101119.19;105852;1256;63534;-75
2024/03/05 00:08:06;;;;;;;22.10;11.80;;;;;;;5.40;99.33;101119.40;105913;1256;73473;-74
2024/03/05 00:10:33;;;;;;;29.20;12.90;;;;;;;5.39;99.35;101113.73;106020;1256;60520;-73
2024/03/05 00:13:00;;;;;;;23.10;12.20;;;;;;;5.35;99.72;101111.93;105745;1254;60552;-73
2024/03/05 00:15:26;;;;;;;26.90;12.20;;;;;;;5.33;100.00;101108.88;105883;1254;72313;-73
2024/03/05 00:17:53;;;;;;;24.50;12.40;;;;;;;5.32;100.00;101110.48;105926;1256;63777;-73
2024/03/05 00:20:20;;;;;;;33.60;15.30;;;;;;;5.32;100.00;101106.66;105775;1254;71674;-75
2024/03/05 00:22:48;;;;;;;30.80;16.10;;;;;;;5.33;100.00;101110.06;105847;1256;60483;-73
2024/03/05 00:25:16;;;;;;;30.50;17.50;;;;;;;5.34;100.00;101107.45;105806;1256;60446;-75
2024/03/05 00:27:44;;;;;;;35.70;18.40;;;;;;;5.36;100.00;101108.62;105766;1256;71792;-75
2024/03/05 00:30:13;;;;;;;43.60;19.60;;;;;;;5.39;100.00;101105.23;105921;1256;64109;-75
2024/03/05 00:32:41;;;;;;;40.40;19.30;;;;;;;5.42;100.00;101103.05;105953;1254;72672;-75
2024/03/05 00:35:08;;;;;;;38.50;18.70;;;;;;;5.45;100.00;101098.96;105863;1256;60498;-74
2024/03/05 00:37:38;;;;;;;30.20;18.40;;;;;;;5.47;100.00;101096.30;105867;1254;60425;-75
2024/03/05 00:40:09;;;;;;;32.70;16.70;;;;;;;5.46;100.00;101097.89;105829;1254;73918;-74
2024/03/05 00:42:38;;;;;;;36.60;18.50;;;;;;;5.44;100.00;101096.08;105810;1256;63075;-75
2024/03/05 00:45:06;;;;;;;31.50;17.70;;;;;;;5.45;100.00;101093.10;105782;1256;70520;-75
2024/03/05 00:47:34;;;;;;;34.10;19.80;;;;;;;5.45;100.00;101092.90;105916;1256;60505;-74
2024/03/05 00:50:03;;;;;;;34.80;19.80;;;;;;;5.44;100.00;101093.47;105810;1256;60406;-72
2024/03/05 00:52:31;;;;;;;32.50;19.30;;;;;;;5.42;100.00;101097.87;105873;1254;73902;-73
2024/03/05 00:54:58;;;;;;;39.90;19.90;;;;;;;5.42;100.00;101096.64;105869;1254;62536;-73
2024/03/05 00:57:25;;;;;;;32.50;19.80;;;;;;;5.43;100.00;101099.58;105791;1254;72699;-74
2024/03/05 00:59:55;;;;;;;36.90;21.10;;;;;;;5.42;100.00;101099.60;105804;1256;60418;-73
2024/03/05 01:02:22;;;;;;;34.00;19.80;;;;;;;5.42;100.00;101100.83;105757;1256;60434;-73
2024/03/05 01:04:49;;;;;;;31.70;18.60;;;;;;;5.40;100.00;101097.20;105714;1252;72456;-73
2024/03/05 01:07:17;;;;;;;29.90;18.60;;;;;;;5.38;100.00;101099.54;105815;1255;63975;-74
2024/03/05 01:09:44;;;;;;;27.50;17.50;;;;;;;5.37;100.00;101104.58;105963;1256;72652;-72
2024/03/05 01:12:11;;;;;;;38.40;18.80;;;;;;;5.37;100.00;101105.30;105761;1259;60430;-74
2024/03/05 01:14:38;;;;;;;32.50;18.80;;;;;;;5.37;100.00;101104.06;105901;1256;60303;-72
2024/03/05 01:17:08;;;;;;;31.30;18.40;;;;;;;5.39;100.00;101106.44;106685;1254;73865;-74
2024/03/05 01:19:35;;;;;;;31.70;18.70;;;;;;;5.40;100.00;101106.58;107794;1254;63988;-73
2024/03/05 01:22:02;;;;;;;39.30;18.30;;;;;;;5.41;100.00;101100.66;108489;1253;71354;-73
2024/03/05 01:24:29;;;;;;;33.90;18.00;;;;;;;5.41;100.00;101103.25;106487;1256;60530;-72
2024/03/05 01:26:56;;;;;;;29.30;17.30;;;;;;;5.39;100.00;101105.91;105952;1256;60425;-72
2024/03/05 01:29:23;;;;;;;32.50;18.80;;;;;;;5.40;100.00;101107.97;105849;1254;73814;-72
2024/03/05 01:31:58;;;;;;;30.30;18.20;;;;;;;5.39;100.00;101107.32;106268;1256;63895;-75
2024/03/05 01:34:26;;;;;;;28.00;17.50;;;;;;;5.36;100.00;101105.49;105799;1254;70267;-76
2024/03/05 01:36:59;;;;;;;29.20;17.30;;;;;;;5.34;100.00;101109.35;105757;1252;60504;-77
2024/03/05 01:39:27;;;;;;;33.70;17.50;;;;;;;5.30;100.00;101105.33;105863;1254;60334;-74
2024/03/05 01:41:55;;;;;;;30.40;16.20;;;;;;;5.23;100.00;101109.71;105911;1252;72416;-74
2024/03/05 01:44:22;;;;;;;27.50;14.40;;;;;;;5.17;100.00;101111.95;105716;1256;62353;-74
2024/03/05 01:46:51;;;;;;;30.60;16.50;;;;;;;5.16;100.00;101110.44;105912;1256;72673;-73
2024/03/05 01:49:17;;;;;;;26.50;14.90;;;;;;;5.16;100.00;101114.75;105893;1252;60437;-71
2024/03/05 01:51:44;;;;;;;24.20;13.20;;;;;;;5.12;100.00;101118.16;105837;1254;60415;-71
2024/03/05 01:54:13;;;;;;;23.60;13.90;;;;;;;5.08;100.00;101115.88;105894;1254;73843;-73
2024/03/05 01:56:42;;;;;;;27.80;14.80;;;;;;;5.05;100.00;101117.34;105829;1256;63852;-73
2024/03/05 01:59:10;;;;;;;24.80;14.40;;;;;;;5.04;100.00;101115.12;105916;1253;71098;-72
2024/03/05 02:01:37;;;;;;;27.40;14.20;;;;;;;5.03;100.00;101115.66;105819;1258;60530;-74
2024/03/05 02:04:04;;;;;;;28.10;15.70;;;;;;;5.02;100.00;101119.86;105816;1257;60562;-75
2024/03/05 02:06:31;;;;;;;38.00;18.80;;;;;;;4.99;100.00;101117.16;105808;1256;73752;-74
2024/03/05 02:08:59;;;;;;;38.00;18.70;;;;;;;4.95;100.00;101118.47;105930;1256;63671;-74
2024/03/05 02:11:26;;;;;;;34.40;16.40;;;;;;;4.93;100.00;101117.85;105910;1256;72535;-73
2024/03/05 02:13:53;;;;;;;27.00;16.60;;;;;;;4.88;100.00;101114.34;105992;1256;60517;-75
2024/03/05 02:16:20;;;;;;;29.70;16.50;;;;;;;4.82;100.00;101114.02;105883;1256;60523;-74
2024/03/05 02:18:47;;;;;;;26.40;17.50;;;;;;;4.78;100.00;101116.19;105845;1259;73715;-76
2024/03/05 02:21:21;;;;;;;36.60;17.80;;;;;;;4.75;100.00;101111.42;105980;1254;62439;-74
2024/03/05 02:23:49;;;;;;;35.60;18.70;;;;;;;4.70;100.00;101104.11;105817;1257;71343;-74
2024/03/05 02:26:17;;;;;;;49.40;19.20;;;;;;;4.66;100.00;101104.76;107106;1254;60355;-72
2024/03/05 02:28:46;;;;;;;40.50;20.50;;;;;;;4.61;100.00;101100.73;106782;1254;224923;-73
2024/03/05 02:31:58;;;;;;;32.80;20.60;;;;;;;4.60;100.00;101101.63;103095;1294;599622;-74
2024/03/05 02:34:27;;;;;;;40.80;20.40;;;;;;;4.55;100.00;101103.66;104903;1266;59617;-73
2024/03/05 02:36:55;;;;;;;31.90;18.80;;;;;;;4.52;100.00;101104.27;105003;1269;59529;-73
2024/03/05 02:39:23;;;;;;;34.30;18.60;;;;;;;4.50;100.00;101107.77;104931;1271;70929;-74
2024/03/05 02:41:50;;;;;;;34.40;17.30;;;;;;;4.51;100.00;101107.77;105014;1270;62553;-71
2024/03/05 02:44:19;;;;;;;32.70;18.70;;;;;;;4.50;100.00;101102.25;104979;1266;72550;-74
2024/03/05 02:46:47;;;;;;;47.20;22.50;;;;;;;4.49;100.00;101100.70;104872;1263;230033;-74
2024/03/05 02:49:14;;;;;;;34.50;20.10;;;;;;;4.51;100.00;101097.36;105014;1263;59990;-73
2024/03/05 02:51:42;;;;;;;34.80;20.70;;;;;;;4.51;100.00;101097.19;104989;1267;71771;-73
2024/03/05 02:54:10;;;;;;;31.60;20.00;;;;;;;4.51;100.00;101095.45;104998;1263;62536;-71
2024/03/05 02:56:38;;;;;;;39.40;21.30;;;;;;;4.52;100.00;101095.44;105601;1261;70983;-74
2024/03/05 02:59:05;;;;;;;32.60;19.70;;;;;;;4.53;100.00;101094.02;105600;1253;59609;-74
2024/03/05 03:01:32;;;;;;;36.40;19.70;;;;;;;4.54;100.00;101096.94;105549;1259;60284;-73
2024/03/05 03:04:00;;;;;;;37.40;20.40;;;;;;;4.55;100.00;101096.04;105767;1262;72169;-73
2024/03/05 03:06:27;;;;;;;34.20;19.70;;;;;;;4.54;100.00;101096.74;106445;1264;62350;-74
2024/03/05 03:08:56;;;;;;;35.60;19.00;;;;;;;4.51;100.00;101098.05;107090;1262;71036;-72
2024/03/05 03:11:24;;;;;;;33.60;18.70;;;;;;;4.47;100.00;101093.84;107149;1253;59579;-72
2024/03/05 03:13:51;;;;;;;39.20;20.80;;;;;;;4.42;100.00;101095.70;105899;1259;60041;-74
2024/03/05 03:16:19;;;;;;;42.90;19.80;;;;;;;4.40;100.00;101093.17;105544;1260;71307;-73
2024/03/05 03:18:47;;;;;;;34.80;19.40;;;;;;;4.40;100.00;101095.92;105638;1259;62372;-76
2024/03/05 03:21:14;;;;;;;34.30;19.00;;;;;;;4.43;100.00;101093.43;105579;1260;72726;-73
2024/03/05 03:23:42;;;;;;;31.40;17.50;;;;;;;4.43;100.00;101094.30;105492;1259;59614;-75
2024/03/05 03:26:09;;;;;;;30.50;16.90;;;;;;;4.39;100.00;101092.85;105425;1260;59714;-73
2024/03/05 03:28:37;;;;;;;38.20;18.20;;;;;;;4.38;100.00;101090.45;105424;1262;73182;-74
2024/03/05 03:31:05;;;;;;;26.90;17.20;;;;;;;4.39;100.00;101090.27;105476;1259;63698;-74
2024/03/05 03:33:33;;;;;;;30.00;19.60;;;;;;;4.39;100.00;101086.27;105534;1261;72666;-74
2024/03/05 03:36:02;;;;;;;28.20;17.30;;;;;;;4.36;100.00;101085.66;105532;1260;59640;-76
2024/03/05 03:38:30;;;;;;;31.90;17.90;;;;;;;4.33;100.00;101082.45;105608;1261;59686;-74
2024/03/05 03:40:58;;;;;;;31.40;18.50;;;;;;;4.31;100.00;101082.50;105653;1253;72001;-74
2024/03/05 03:43:26;;;;;;;25.60;18.40;;;;;;;4.27;100.00;101078.80;106076;1261;62554;-72
2024/03/05 03:45:56;;;;;;;35.60;21.40;;;;;;;4.20;100.00;101080.71;105463;1260;71459;-73
2024/03/05 03:48:24;;;;;;;34.00;20.80;;;;;;;4.15;100.00;101078.95;105559;1260;59741;-72
2024/03/05 03:50:52;;;;;;;36.50;20.60;;;;;;;4.11;100.00;101079.54;105437;1262;59616;-74
2024/03/05 03:53:19;;;;;;;36.50;19.40;;;;;;;4.08;100.00;101078.58;105440;1260;73089;-73
2024/03/05 03:55:49;;;;;;;30.80;19.40;;;;;;;4.06;100.00;101072.77;105429;1254;62265;-73
2024/03/05 03:58:19;;;;;;;33.70;19.50;;;;;;;4.02;100.00;101070.62;105448;1257;71463;-74
2024/03/05 04:00:46;;;;;;;32.70;17.90;;;;;;;4.00;100.00;101074.99;105417;1260;59701;-74
2024/03/05 04:03:14;;;;;;;33.30;20.20;;;;;;;4.01;100.00;101073.58;105570;1254;60152;-74
2024/03/05 04:05:44;;;;;;;33.90;20.80;;;;;;;4.01;100.00;101076.02;105746;1254;73025;-73
2024/03/05 04:08:12;;;;;;;32.00;20.00;;;;;;;3.98;100.00;101076.27;105509;1259;62181;-73
2024/03/05 04:10:40;;;;;;;33.70;19.50;;;;;;;3.94;100.00;101076.86;105430;1260;70905;-74
2024/03/05 04:13:08;;;;;;;43.40;22.10;;;;;;;3.91;100.00;101076.08;105464;1260;59746;-75
2024/03/05 04:15:37;;;;;;;41.80;22.40;;;;;;;3.89;100.00;101074.73;105414;1259;60032;-74
2024/03/05 04:18:05;;;;;;;39.50;21.80;;;;;;;3.88;100.00;101077.38;105413;1254;73116;-73
2024/03/05 04:20:32;;;;;;;44.90;23.50;;;;;;;3.88;100.00;101076.31;105620;1262;62580;-74
2024/03/05 04:22:59;;;;;;;38.40;23.40;;;;;;;3.89;100.00;101073.54;105502;1260;72208;-76
2024/03/05 04:25:30;;;;;;;37.20;22.70;;;;;;;3.89;100.00;101077.52;105735;1254;59691;-73
2024/03/05 04:28:10;;;;;;;38.10;22.40;;;;;;;3.87;100.00;101075.83;105755;1251;59777;-75
2024/03/05 04:30:39;;;;;;;41.30;23.20;;;;;;;3.85;100.00;101077.27;105773;1252;73184;-74
2024/03/05 04:33:11;;;;;;;40.70;22.20;;;;;;;3.86;100.00;101079.66;105761;1251;62816;-73
2024/03/05 04:35:38;;;;;;;38.80;22.60;;;;;;;3.85;100.00;101079.85;105757;1257;72741;-73
2024/03/05 04:38:06;;;;;;;37.70;22.40;;;;;;;3.85;100.00;101080.58;105791;1258;59602;-75
2024/03/05 04:40:34;;;;;;;46.60;22.90;;;;;;;3.83;100.00;101082.51;105692;1257;60692;-74
2024/03/05 04:43:02;;;;;;;38.30;20.60;;;;;;;3.80;100.00;101082.41;105801;1258;72102;-75
2024/03/05 04:45:29;;;;;;;38.00;21.00;;;;;;;3.78;100.00;101086.79;105850;1258;65644;-76
2024/03/05 04:47:57;;;;;;;32.80;20.20;;;;;;;3.78;100.00;101088.52;105803;1260;71497;-74
2024/03/05 04:50:25;;;;;;;34.80;20.90;;;;;;;3.77;100.00;101094.77;105791;1254;59769;-75
2024/03/05 04:52:53;;;;;;;35.50;22.30;;;;;;;3.75;100.00;101092.73;105852;1256;60047;-77
2024/03/05 04:55:22;;;;;;;41.40;22.50;;;;;;;3.76;100.00;101088.73;105726;1258;73083;-76
2024/03/05 04:57:50;;;;;;;37.50;22.20;;;;;;;3.76;100.00;101091.85;105841;1257;62508;-75
2024/03/05 05:00:23;;;;;;;37.80;22.00;;;;;;;3.76;100.00;101088.91;105692;1257;70498;-74
2024/03/05 05:02:51;;;;;;;34.60;22.90;;;;;;;3.74;100.00;101087.55;105731;1257;59779;-74
2024/03/05 05:05:24;;;;;;;31.40;18.50;;;;;;;3.69;100.00;101084.40;105817;1257;60072;-74
2024/03/05 05:07:56;;;;;;;36.30;21.00;;;;;;;3.65;100.00;101084.17;105778;1251;71846;-73
2024/03/05 05:10:24;;;;;;;37.80;21.40;;;;;;;3.61;100.00;101083.55;106967;1251;62561;-73
2024/03/05 05:12:52;;;;;;;38.00;21.10;;;;;;;3.57;100.00;101085.20;106991;1251;72739;-72
2024/03/05 05:15:21;;;;;;;36.50;21.40;;;;;;;3.56;100.00;101083.69;107124;1252;59669;-75
2024/03/05 05:17:49;;;;;;;41.60;22.70;;;;;;;3.56;100.00;101082.47;105710;1256;59656;-75
2024/03/05 05:20:18;;;;;;;38.60;21.80;;;;;;;3.60;100.00;101083.23;105775;1259;71872;-75
2024/03/05 05:22:47;;;;;;;41.00;21.50;;;;;;;3.64;100.00;101084.00;105995;1257;62771;-71
2024/03/05 05:25:16;;;;;;;30.60;19.90;;;;;;;3.69;100.00;101088.04;105870;1255;71435;-73
2024/03/05 05:27:44;;;;;;;40.60;21.70;;;;;;;3.72;100.00;101088.14;105741;1256;60287;-75
2024/03/05 05:30:15;;;;;;;38.90;21.50;;;;;;;3.72;100.00;101083.65;105893;1252;59726;-74
2024/03/05 05:32:43;;;;;;;38.50;21.30;;;;;;;3.74;100.00;101090.34;105759;1251;71803;-75
2024/03/05 05:35:11;;;;;;;32.60;20.00;;;;;;;3.78;100.00;101093.36;105736;1251;66164;-76
2024/03/05 05:37:39;;;;;;;37.50;21.20;;;;;;;3.77;100.00;101095.63;106142;1254;71518;-76
2024/03/05 05:40:11;;;;;;;41.30;22.00;;;;;;;3.80;100.00;101085.70;105762;1251;59691;-74
2024/03/05 05:42:39;;;;;;;37.00;20.90;;;;;;;3.85;100.00;101088.34;105821;1251;60085;-74
2024/03/05 05:45:11;;;;;;;39.40;22.50;;;;;;;3.89;100.00;101083.06;105779;1256;73523;-74
2024/03/05 05:47:56;;;;;;;36.30;21.90;;;;;;;3.94;100.00;101087.24;105793;1251;62716;-73
2024/03/05 05:50:31;;;;;;;41.50;22.20;;;;;;;4.03;100.00;101090.16;105760;1257;72715;-76
2024/03/05 05:52:58;;;;;;;46.20;23.70;;;;;;;4.09;100.00;101092.41;105967;1251;59730;-74
2024/03/05 05:55:27;;;;;;;36.00;21.50;;;;;;;4.17;100.00;101099.30;105902;1251;60288;-75
2024/03/05 05:57:55;;;;;;;39.00;21.30;;;;;;;4.24;100.00;101099.30;105784;1251;73054;-74
2024/03/05 06:00:38;;;;;;;42.80;22.80;;;;;;;4.27;100.00;101097.13;105744;1251;62786;-76
2024/03/05 06:03:07;;;;;;;46.30;24.20;;;;;;;4.28;100.00;101095.89;105798;1254;71416;-74
2024/03/05 06:05:36;;;;;;;40.90;23.00;;;;;;;4.29;100.00;101090.51;105729;1251;60202;-76
2024/03/05 06:08:07;;;;;;;43.00;21.90;;;;;;;4.33;100.00;101093.35;105719;1257;60479;-76
2024/03/05 06:10:35;;;;;;;34.80;23.30;;;;;;;4.35;100.00;101084.46;105791;1256;74085;-76
2024/03/05 06:13:02;;;;;;;35.50;21.60;;;;;;;4.36;100.00;101084.61;105766;1257;63721;-75
2024/03/05 06:15:30;;;;;;;42.20;22.20;;;;;;;4.35;100.00;101084.63;105804;1254;71783;-75
2024/03/05 06:17:59;;;;;;;33.90;19.60;;;;;;;4.33;100.00;101088.86;105752;1257;59646;-75
2024/03/05 06:20:27;;;;;;;36.50;20.00;;;;;;;4.32;100.00;101084.02;105897;1256;59698;-74
2024/03/05 06:22:58;;;;;;;44.70;23.50;;;;;;;4.33;100.00;101083.48;105724;1257;75338;-75
2024/03/05 06:25:26;;;;;;;36.10;21.30;;;;;;;4.36;100.00;101078.55;105803;1256;63975;-75
2024/03/05 06:27:54;;;;;;;38.10;22.10;;;;;;;4.42;100.00;101081.17;105974;1251;73174;-75
2024/03/05 06:30:22;;;;;;;39.60;22.10;;;;;;;4.46;100.00;101077.95;105695;1254;59648;-72
2024/03/05 06:32:51;;;;;;;39.90;20.70;;;;;;;4.47;100.00;101078.25;105818;1254;59805;-74
2024/03/05 06:35:23;;;;;;;33.40;20.60;;;;;;;4.49;100.00;101078.55;105755;1260;73089;-73
2024/03/05 06:37:51;;;;;;;41.90;21.00;;;;;;;4.53;100.00;101077.92;105843;1257;63718;-71
2024/03/05 06:40:20;;;;;;;34.50;20.00;;;;;;;4.58;100.00;101076.58;105842;1258;71297;-72
2024/03/05 06:43:03;;;;;;;36.60;21.50;;;;;;;4.65;100.00;101077.42;105816;1253;60533;-75
2024/03/05 06:45:34;;;;;;;35.20;21.10;;;;;;;4.74;100.00;101072.82;105923;1257;60520;-72
2024/03/05 06:48:07;;;;;;;36.80;20.50;;;;;;;4.85;100.00;101075.64;105857;1258;73775;-73
2024/03/05 06:50:43;;;;;;;36.10;19.90;;;;;;;4.97;100.00;101073.72;105943;1254;62924;-73
2024/03/05 06:58:47;;;;;;;56.90;22.00;;;;;;;5.41;100.00;101068.06;105651;1258;60465;-75
2024/03/05 07:01:19;;;;;;;33.10;19.80;;;;;;;5.60;99.86;101066.42;105803;1258;72267;-73
2024/03/05 07:03:48;;;;;;;37.10;21.90;;;;;;;5.80;97.68;101067.70;105813;1257;63900;-74
2024/03/05 07:06:18;;;;;;;42.00;21.60;;;;;;;6.00;96.58;101062.88;105667;1258;72800;-75
2024/03/05 07:08:51;;;;;;;44.00;22.10;;;;;;;6.27;95.19;101062.30;105860;1256;61286;-75
2024/03/05 07:11:19;;;;;;;38.40;21.00;;;;;;;6.52;93.83;101063.13;105901;1257;60410;-73
2024/03/05 07:13:47;;;;;;;37.10;21.60;;;;;;;6.77;92.50;101066.05;105720;1257;72666;-75
2024/03/05 07:16:16;;;;;;;49.00;21.40;;;;;;;7.02;88.08;101062.18;105855;1255;62421;-75
2024/03/05 07:18:49;;;;;;;33.10;18.60;;;;;;;7.23;83.90;101062.07;105791;1254;71998;-74
2024/03/05 07:21:17;;;;;;;38.10;18.00;;;;;;;7.48;80.37;101060.05;105715;1257;60526;-73
2024/03/05 07:23:46;;;;;;;33.60;18.10;;;;;;;7.77;77.54;101062.52;105783;1254;60512;-76
2024/03/05 07:26:14;;;;;;;30.60;17.30;;;;;;;8.12;73.53;101056.15;105733;1257;71714;-74
2024/03/05 07:28:43;;;;;;;29.50;17.30;;;;;;;8.48;70.13;101052.73;105796;1257;66036;-74
2024/03/05 07:31:11;;;;;;;26.00;18.20;;;;;;;8.87;69.02;101051.31;105991;1255;72202;-74
2024/03/05 07:33:39;;;;;;;35.60;17.90;;;;;;;9.29;65.38;101049.52;105879;1254;60623;-74
2024/03/05 07:36:07;;;;;;;33.70;22.20;;;;;;;9.65;61.54;101049.20;105948;1257;60526;-75
2024/03/05 07:38:34;;;;;;;34.00;22.60;;;;;;;9.93;57.94;101041.38;105792;1254;72654;-76
2024/03/05 07:41:02;;;;;;;39.80;24.60;;;;;;;10.28;56.13;101045.35;105802;1264;66492;-73
2024/03/05 07:43:44;;;;;;;36.40;22.80;;;;;;;10.77;53.54;101046.09;105877;1257;72783;-74
2024/03/05 07:46:11;;;;;;;31.20;19.00;;;;;;;11.29;51.42;101044.09;105820;1257;60634;-76
2024/03/05 07:48:39;;;;;;;37.50;21.30;;;;;;;11.80;48.60;101042.59;105794;1251;60534;-72
2024/03/05 07:51:07;;;;;;;34.50;21.90;;;;;;;12.17;46.58;101035.56;105792;1252;73763;-74
2024/03/05 07:53:34;;;;;;;32.40;20.70;;;;;;;12.48;45.30;101029.65;106839;1254;63452;-74
2024/03/05 07:56:04;;;;;;;30.70;18.60;;;;;;;12.78;44.23;101029.70;107452;1253;72564;-74
2024/03/05 07:58:32;;;;;;;33.00;17.80;;;;;;;13.05;43.80;101029.73;107531;1251;60425;-75
2024/03/05 08:01:00;;;;;;;28.40;18.10;;;;;;;13.36;42.85;101027.98;106294;1251;60466;-74
2024/03/05 08:03:27;;;;;;;34.50;16.70;;;;;;;13.66;41.68;101029.50;105839;1256;73309;-74
2024/03/05 08:05:55;;;;;;;25.10;16.80;;;;;;;13.91;40.83;101031.34;105901;1254;65028;-74
2024/03/05 08:08:25;;;;;;;27.00;16.10;;;;;;;14.20;40.91;101026.59;105828;1253;74357;-73
2024/03/05 08:10:53;;;;;;;29.80;15.90;;;;;;;14.58;39.75;101027.84;106079;1256;61950;-74
2024/03/05 08:13:21;;;;;;;23.50;14.60;;;;;;;14.81;38.85;101032.02;105805;1252;60506;-75
2024/03/05 08:15:48;;;;;;;23.80;14.60;;;;;;;14.88;38.59;101028.20;105821;1256;73910;-74
2024/03/05 08:18:18;;;;;;;26.10;14.00;;;;;;;14.97;38.14;101029.52;106188;1254;65972;-74
2024/03/05 08:20:46;;;;;;;30.90;14.60;;;;;;;15.16;38.05;101028.48;105819;1257;73608;-74
2024/03/05 08:23:14;;;;;;;25.00;15.70;;;;;;;15.53;37.48;101032.11;105797;1257;60998;-74
2024/03/05 08:25:41;;;;;;;21.20;12.60;;;;;;;15.80;36.68;101029.92;105823;1251;62526;-73
2024/03/05 08:28:13;;;;;;;21.50;13.60;;;;;;;15.87;36.26;101026.55;105932;1252;73488;-77
2024/03/05 08:30:42;;;;;;;31.40;13.40;;;;;;;15.95;36.42;101021.59;105764;1254;65913;-74
2024/03/05 08:33:10;;;;;;;26.20;14.10;;;;;;;16.14;36.39;101021.16;105868;1257;73242;-74
2024/03/05 08:35:37;;;;;;;25.00;15.60;;;;;;;16.34;35.54;101020.68;105827;1256;60535;-74
2024/03/05 08:38:09;;;;;;;23.90;15.20;;;;;;;16.40;35.49;101017.20;105730;1257;61170;-75
2024/03/05 08:40:36;;;;;;;29.80;15.40;;;;;;;16.54;35.24;101018.06;105804;1257;73870;-73
2024/03/05 08:43:06;;;;;;;32.10;15.00;;;;;;;16.63;34.82;101015.75;105801;1257;63998;-74
2024/03/05 08:45:36;;;;;;;26.30;14.80;;;;;;;16.67;34.78;101010.66;105809;1255;72222;-74
2024/03/05 08:48:03;;;;;;;21.20;14.30;;;;;;;16.70;34.65;101015.02;105813;1257;60425;-76
2024/03/05 08:50:32;;;;;;;22.20;13.40;;;;;;;16.72;34.52;101011.51;105815;1253;60552;-75
2024/03/05 08:53:00;;;;;;;26.50;15.10;;;;;;;16.79;34.02;101006.42;105742;1254;72088;-76
2024/03/05 08:55:29;;;;;;;24.60;13.60;;;;;;;16.67;34.37;100998.31;106096;1252;63655;-74
2024/03/05 08:57:57;;;;;;;25.30;13.60;;;;;;;16.66;34.17;100993.63;105728;1254;71965;-75
2024/03/05 09:00:26;;;;;;;26.70;14.40;;;;;;;16.81;34.44;100993.50;109534;1252;61184;-74
2024/03/05 09:03:09;;;;;;;30.90;13.60;;;;;;;17.15;34.15;100990.27;109571;1253;59033;-74
2024/03/05 09:05:37;;;;;;;26.80;13.40;;;;;;;17.33;33.83;100988.80;109590;1252;76248;-73
2024/03/05 09:08:06;;;;;;;20.20;13.70;;;;;;;17.48;33.62;100986.79;109582;1252;61552;-73
2024/03/05 09:10:34;;;;;;;27.80;14.40;;;;;;;17.62;33.38;100988.11;109590;1252;72504;-74
2024/03/05 09:13:02;;;;;;;20.60;12.70;;;;;;;17.74;33.14;100987.47;109590;1252;59470;-72
2024/03/05 09:15:29;;;;;;;21.80;11.90;;;;;;;17.87;33.06;100982.73;109629;1252;61616;-74
2024/03/05 09:17:58;;;;;;;21.90;12.70;;;;;;;18.03;32.62;100980.83;109553;1251;74272;-72
2024/03/05 09:20:25;;;;;;;22.80;12.30;;;;;;;18.19;32.59;100977.12;109598;1252;62579;-74
2024/03/05 09:22:53;;;;;;;23.60;13.20;;;;;;;18.38;32.26;100974.73;109551;1252;72732;-73
2024/03/05 09:25:20;;;;;;;19.70;12.00;;;;;;;18.53;32.17;100972.97;109560;1253;58915;-74
2024/03/05 09:27:48;;;;;;;17.70;12.40;;;;;;;18.75;31.94;100971.72;109592;1251;60018;-75
2024/03/05 09:30:18;;;;;;;20.40;11.90;;;;;;;18.99;31.72;100972.59;109547;1251;72773;-73
2024/03/05 09:32:48;;;;;;;33.20;13.80;;;;;;;19.14;31.31;100969.11;109585;1250;62536;-74
2024/03/05 09:35:17;;;;;;;19.20;12.00;;;;;;;19.21;31.10;100964.02;109576;1251;71598;-74
2024/03/05 09:37:46;;;;;;;22.50;12.00;;;;;;;19.39;31.21;100957.30;109573;1251;62365;-73
2024/03/05 09:40:17;;;;;;;22.00;12.00;;;;;;;19.33;30.84;100959.77;109609;1251;61069;-74
2024/03/05 09:42:46;;;;;;;14.90;10.70;;;;;;;19.24;30.73;100953.90;109561;1251;74611;-73
2024/03/05 09:45:15;;;;;;;23.90;12.70;;;;;;;19.22;30.79;100947.79;109568;1251;66504;-73
2024/03/05 09:47:44;;;;;;;14.30;10.30;;;;;;;19.30;30.72;100947.26;109576;1251;73224;-74
2024/03/05 09:50:12;;;;;;;21.20;11.70;;;;;;;19.28;30.95;100945.38;109549;1252;60602;-74
2024/03/05 09:52:40;;;;;;;21.40;11.50;;;;;;;19.21;30.71;100945.09;109600;1251;60344;-72
2024/03/05 09:55:08;;;;;;;24.50;10.60;;;;;;;19.24;30.69;100949.11;109422;1255;74713;-75
2024/03/05 09:57:36;;;;;;;25.10;13.60;;;;;;;19.19;30.45;100941.89;109582;1251;63058;-74
2024/03/05 10:00:09;;;;;;;22.40;12.30;;;;;;;19.15;30.65;100942.10;109626;1252;72100;-75
2024/03/05 10:02:41;;;;;;;18.30;10.30;;;;;;;19.23;30.72;100934.60;109513;1251;60461;-73
2024/03/05 10:05:09;;;;;;;18.80;11.60;;;;;;;19.22;30.55;100934.88;109615;1251;61534;-72
2024/03/05 10:07:37;;;;;;;22.10;10.70;;;;;;;18.93;30.73;100927.43;109477;1251;74017;-74
2024/03/05 10:10:10;;;;;;;16.80;11.40;;;;;;;18.56;31.01;100927.34;109445;1251;63023;-74
2024/03/05 10:12:39;;;;;;;24.00;12.00;;;;;;;18.16;31.42;100926.41;109628;1251;73628;-73
2024/03/05 10:15:11;;;;;;;19.10;11.50;;;;;;;17.68;31.77;100918.49;109592;1252;59175;-74
2024/03/05 10:17:44;;;;;;;18.80;10.10;;;;;;;17.25;32.48;100916.77;109626;1251;60125;-73
2024/03/05 10:20:36;;;;;;;26.60;11.10;;;;;;;16.90;32.94;100913.65;109595;1251;72426;-73
2024/03/05 10:23:10;;;;;;;19.10;9.90;;;;;;;16.66;33.39;100908.52;109535;1250;64893;-73
2024/03/05 10:25:39;;;;;;;18.40;10.30;;;;;;;16.46;33.70;100909.11;109610;1251;74999;-76
2024/03/05 10:28:08;;;;;;;20.90;10.00;;;;;;;16.19;34.33;100903.80;109611;1252;60327;-74
2024/03/05 10:30:37;;;;;;;20.60;9.70;;;;;;;16.20;34.53;100902.87;109633;1251;59874;-74
2024/03/05 10:33:09;;;;;;;15.90;9.50;;;;;;;16.22;34.54;100900.43;109621;1251;72403;-73
2024/03/05 10:35:37;;;;;;;17.80;9.60;;;;;;;16.27;34.52;100896.65;109533;1251;63457;-73
2024/03/05 10:38:14;;;;;;;18.50;8.70;;;;;;;16.39;34.90;100893.10;109663;1251;73139;-74
2024/03/05 10:40:43;;;;;;;24.70;9.10;;;;;;;16.53;34.58;100887.67;109547;1251;59929;-73
2024/03/05 10:43:16;;;;;;;18.90;10.10;;;;;;;16.61;34.38;100881.96;109506;1251;59321;-74
2024/03/05 10:45:44;;;;;;;18.80;9.30;;;;;;;16.52;34.29;100882.52;109615;1251;74090;-75
2024/03/05 10:48:14;;;;;;;21.70;10.50;;;;;;;16.25;34.63;100880.39;109466;1251;62782;-73
2024/03/05 10:50:44;;;;;;;20.80;9.30;;;;;;;15.93;34.96;100881.55;109486;1251;72487;-73
2024/03/05 10:53:12;;;;;;;24.10;9.30;;;;;;;15.65;35.32;100876.61;109430;1254;60612;-73
2024/03/05 10:55:40;;;;;;;21.20;8.60;;;;;;;15.29;35.89;100876.88;109357;1251;59918;-73
2024/03/05 10:58:13;;;;;;;24.00;9.50;;;;;;;14.92;36.35;100871.44;109551;1251;75841;-73
2024/03/05 11:00:43;;;;;;;23.80;9.60;;;;;;;14.66;36.89;100872.05;109658;1250;64606;-75
2024/03/05 11:03:12;;;;;;;24.70;10.40;;;;;;;14.57;37.37;100870.46;109595;1251;72369;-73
2024/03/05 11:05:53;;;;;;;22.10;9.80;;;;;;;14.46;37.74;100865.75;109579;1251;61135;-73
2024/03/05 11:08:24;;;;;;;15.70;9.40;;;;;;;14.33;37.99;100862.09;109635;1251;61076;-73
2024/03/05 11:10:57;;;;;;;21.80;9.70;;;;;;;14.18;38.13;100861.59;109623;1251;72406;-73
2024/03/05 11:13:26;;;;;;;23.10;9.60;;;;;;;14.05;38.59;100854.44;109617;1251;63361;-74
2024/03/05 11:15:53;;;;;;;22.00;9.50;;;;;;;13.96;38.93;100857.33;109608;1251;74926;-74